createdAt,value
2018-10-17T00:00:21.263Z,10.23
2018-10-17T00:04:24.990Z,8.13
2018-10-17T00:08:28.759Z,9.50
2018-10-17T00:12:32.492Z,12.03
2018-10-17T00:16:36.494Z,9.23
2018-10-17T00:20:40.306Z,8.63
2018-10-17T00:24:44.108Z,10.33
2018-10-17T00:28:47.851Z,9.50
2018-10-17T00:32:51.591Z,9.97
2018-10-17T00:36:55.508Z,9.37
2018-10-17T00:40:59.327Z,10.40
2018-10-17T00:45:03.185Z,9.73
2018-10-17T00:49:06.935Z,9.27
2018-10-17T00:53:10.827Z,10.63
2018-10-17T00:57:14.523Z,10.43
2018-10-17T01:01:18.256Z,11.07
2018-10-17T01:05:22.068Z,9.83
2018-10-17T01:09:25.848Z,10.10
2018-10-17T01:13:29.632Z,9.53
2018-10-17T01:17:33.384Z,8.33
2018-10-17T01:21:37.691Z,7.80
2018-10-17T01:25:41.418Z,8.10
2018-10-17T01:29:45.152Z,6.67
2018-10-17T01:33:48.996Z,7.40
2018-10-17T01:37:52.780Z,7.43
2018-10-17T01:41:56.557Z,8.33
2018-10-17T01:46:00.576Z,8.90
2018-10-17T01:50:04.699Z,9.73
2018-10-17T01:54:08.437Z,9.27
2018-10-17T01:58:12.264Z,8.83
2018-10-17T02:02:16.098Z,8.23
2018-10-17T02:06:19.873Z,7.03
2018-10-17T02:10:23.659Z,8.90
2018-10-17T02:14:27.409Z,8.10
2018-10-17T02:18:31.201Z,8.43
2018-10-17T02:22:34.949Z,7.93
2018-10-17T02:26:38.695Z,8.43
2018-10-17T02:30:42.546Z,8.30
2018-10-17T02:34:51.625Z,7.13
2018-10-17T02:38:55.474Z,8.60
2018-10-17T02:42:59.280Z,10.03
2018-10-17T02:47:03.054Z,8.57
2018-10-17T02:51:06.750Z,9.10
2018-10-17T02:55:10.527Z,7.97
2018-10-17T02:59:14.294Z,8.97
2018-10-17T03:03:18.010Z,9.17
2018-10-17T03:07:21.722Z,9.80
2018-10-17T03:11:25.459Z,8.10
2018-10-17T03:15:29.222Z,9.80
2018-10-17T03:19:32.983Z,7.00
2018-10-17T03:23:36.693Z,7.03
2018-10-17T03:27:40.465Z,6.90
2018-10-17T03:31:44.224Z,8.07
2018-10-17T03:35:48.040Z,7.03
2018-10-17T03:39:51.768Z,7.17
2018-10-17T03:43:55.480Z,7.63
2018-10-17T03:47:59.232Z,7.23
2018-10-17T03:52:02.990Z,7.40
2018-10-17T03:56:06.831Z,8.20
2018-10-17T04:00:10.612Z,9.23
2018-10-17T04:04:14.366Z,11.87
2018-10-17T04:08:18.142Z,9.60
2018-10-17T04:12:22.011Z,9.90
2018-10-17T04:16:25.768Z,7.90
2018-10-17T04:20:29.500Z,7.97
2018-10-17T04:24:33.225Z,8.57
2018-10-17T04:28:37.005Z,9.30
2018-10-17T04:32:40.805Z,9.87
2018-10-17T04:36:44.631Z,9.70
2018-10-17T04:40:48.345Z,9.40
2018-10-17T04:44:52.106Z,9.37
2018-10-17T04:48:55.860Z,9.57
2018-10-17T04:52:59.676Z,8.30
2018-10-17T04:57:03.410Z,8.00
2018-10-17T05:01:07.245Z,8.83
2018-10-17T05:05:11.295Z,9.20
2018-10-17T05:09:15.005Z,9.60
2018-10-17T05:13:18.764Z,9.80
2018-10-17T05:17:22.578Z,9.73
2018-10-17T05:21:26.309Z,9.23
2018-10-17T05:25:30.192Z,11.43
2018-10-17T05:29:33.989Z,10.60
2018-10-17T05:33:37.717Z,11.60
2018-10-17T05:37:41.593Z,12.53
2018-10-17T05:41:45.310Z,11.77
2018-10-17T05:45:49.102Z,10.20
2018-10-17T05:49:52.845Z,10.47
2018-10-17T05:53:56.550Z,11.23
2018-10-17T05:58:00.336Z,10.90
2018-10-17T06:02:08.849Z,11.50
2018-10-17T06:06:12.520Z,12.13
2018-10-17T06:10:16.298Z,11.80
2018-10-17T06:14:20.074Z,10.93
2018-10-17T06:18:23.810Z,12.17
2018-10-17T06:22:27.573Z,11.67
2018-10-17T06:26:31.329Z,11.00
2018-10-17T06:30:35.153Z,11.30
2018-10-17T06:34:38.958Z,11.73
2018-10-17T06:38:42.701Z,11.97
2018-10-17T06:42:46.393Z,12.00
2018-10-17T06:46:50.112Z,11.50
2018-10-17T06:50:53.837Z,12.40
2018-10-17T06:54:57.671Z,11.80
2018-10-17T06:59:01.439Z,12.53
2018-10-17T07:03:05.168Z,11.73
2018-10-17T07:07:08.976Z,13.53
2018-10-17T07:11:12.753Z,14.80
2018-10-17T07:15:16.481Z,15.93
2018-10-17T07:19:20.174Z,16.03
2018-10-17T07:23:23.840Z,15.57
2018-10-17T07:27:27.568Z,18.20
2018-10-17T07:31:31.280Z,18.97
2018-10-17T07:35:35.117Z,18.17
2018-10-17T07:39:38.814Z,19.57
2018-10-17T07:43:43.220Z,17.43
2018-10-17T07:47:46.986Z,16.40
2018-10-17T07:51:50.733Z,16.97
2018-10-17T07:55:54.482Z,17.77
2018-10-17T07:59:58.244Z,15.77
2018-10-17T08:04:01.981Z,18.10
2018-10-17T08:08:05.897Z,21.63
2018-10-17T08:12:09.638Z,18.60
2018-10-17T08:16:13.482Z,19.80
2018-10-17T08:20:17.197Z,21.67
2018-10-17T08:24:20.882Z,20.53
2018-10-17T08:28:24.604Z,20.13
2018-10-17T08:32:28.316Z,18.67
2018-10-17T08:36:32.227Z,17.33
2018-10-17T08:40:35.820Z,18.47
2018-10-17T08:44:39.513Z,18.33
2018-10-17T08:48:43.240Z,18.17
2018-10-17T08:52:46.929Z,19.20
2018-10-17T08:56:50.642Z,19.40
2018-10-17T09:00:54.395Z,18.97
2018-10-17T09:04:58.069Z,18.87
2018-10-17T09:09:01.788Z,18.47
2018-10-17T09:13:05.807Z,18.73
2018-10-17T09:17:09.738Z,18.00
2018-10-17T09:21:13.821Z,17.83
2018-10-17T09:25:17.519Z,16.13
2018-10-17T09:29:21.415Z,18.73
2018-10-17T09:33:25.182Z,17.70
2018-10-17T09:37:28.978Z,16.07
2018-10-17T09:41:32.910Z,17.17
2018-10-17T09:45:36.766Z,16.23
2018-10-17T09:49:40.551Z,18.40
2018-10-17T09:53:44.360Z,15.83
2018-10-17T09:57:48.189Z,15.80
2018-10-17T10:01:52.929Z,15.43
2018-10-17T10:05:56.935Z,13.10
2018-10-17T10:10:00.673Z,12.20
2018-10-17T10:14:04.650Z,11.00
2018-10-17T10:18:08.501Z,12.00
2018-10-17T10:22:12.579Z,12.67
2018-10-17T10:26:17.240Z,12.27
2018-10-17T10:30:21.225Z,11.03
2018-10-17T10:34:25.084Z,11.00
2018-10-17T10:38:28.943Z,10.37
2018-10-17T10:42:32.809Z,9.97
2018-10-17T10:46:36.773Z,8.77
2018-10-17T10:50:40.616Z,9.57
2018-10-17T10:54:44.498Z,7.93
2018-10-17T10:58:48.488Z,8.30
2018-10-17T11:02:52.290Z,7.37
2018-10-17T11:06:56.165Z,6.07
2018-10-17T11:11:00.055Z,6.90
2018-10-17T11:15:04.103Z,6.97
2018-10-17T11:19:07.925Z,7.77
2018-10-17T11:23:12.539Z,6.90
2018-10-17T11:27:16.590Z,6.50
2018-10-17T11:31:20.333Z,6.47
2018-10-17T11:35:24.289Z,6.37
2018-10-17T11:39:28.236Z,6.53
2018-10-17T11:43:32.234Z,5.67
2018-10-17T11:47:36.150Z,6.00
2018-10-17T11:51:39.927Z,6.10
2018-10-17T11:55:43.805Z,6.50
2018-10-17T11:59:47.787Z,5.77
2018-10-17T12:03:52.046Z,6.03
2018-10-17T12:07:55.694Z,5.77
2018-10-17T12:11:59.643Z,6.00
2018-10-17T12:16:03.603Z,5.87
2018-10-17T12:20:10.057Z,5.60
2018-10-17T12:24:14.016Z,5.43
2018-10-17T12:28:18.048Z,5.73
2018-10-17T12:32:21.853Z,5.50
2018-10-17T12:36:25.673Z,5.07
2018-10-17T12:40:29.630Z,5.83
2018-10-17T12:44:33.579Z,5.40
2018-10-17T12:48:37.386Z,5.63
2018-10-17T12:52:41.432Z,7.90
2018-10-17T12:56:45.280Z,10.33
2018-10-17T13:00:49.105Z,7.10
2018-10-17T13:04:53.045Z,6.00
2018-10-17T13:08:56.792Z,5.80
2018-10-17T13:13:00.691Z,5.53
2018-10-17T13:17:04.611Z,7.57
2018-10-17T13:21:08.552Z,6.53
2018-10-17T13:25:12.411Z,5.57
2018-10-17T13:29:16.174Z,5.53
2018-10-17T13:33:19.940Z,41.90
2018-10-17T13:37:23.799Z,6.10
2018-10-17T13:41:27.570Z,6.12
2018-10-17T13:45:31.338Z,5.43
2018-10-17T13:49:35.258Z,5.90
2018-10-17T13:53:39.031Z,9.03
2018-10-17T13:57:42.848Z,6.03
2018-10-17T14:01:46.638Z,12.33
2018-10-17T14:05:50.590Z,9.37
2018-10-17T14:09:54.418Z,6.43
2018-10-17T14:13:58.309Z,5.90
2018-10-17T14:18:02.105Z,5.90
2018-10-17T14:22:06.454Z,5.60
2018-10-17T14:26:10.169Z,5.17
2018-10-17T14:30:14.028Z,5.73
2018-10-17T14:34:17.763Z,4.93
2018-10-17T14:38:22.443Z,5.60
2018-10-17T14:42:26.299Z,5.40
2018-10-17T14:46:30.075Z,5.40
2018-10-17T14:50:33.899Z,5.10
2018-10-17T14:54:37.735Z,5.47
2018-10-17T14:58:41.532Z,5.37
2018-10-17T15:02:45.530Z,5.23
2018-10-17T15:06:49.336Z,4.73
2018-10-17T15:10:53.341Z,5.77
2018-10-17T15:14:56.978Z,6.20
2018-10-17T15:19:00.720Z,5.87
2018-10-17T15:23:04.540Z,5.33
2018-10-17T15:27:08.355Z,5.53
2018-10-17T15:31:12.090Z,5.87
2018-10-17T15:35:16.102Z,5.43
2018-10-17T15:39:19.869Z,6.43
2018-10-17T15:43:23.766Z,5.67
2018-10-17T15:47:27.441Z,5.63
2018-10-17T15:51:31.207Z,6.10
2018-10-17T15:55:34.998Z,6.73
2018-10-17T15:59:38.720Z,7.90
2018-10-17T16:03:42.481Z,7.33
2018-10-17T16:07:46.326Z,7.90
2018-10-17T16:11:50.064Z,7.90
2018-10-17T16:15:53.856Z,6.20
2018-10-17T16:19:57.654Z,7.00
2018-10-17T16:24:01.428Z,7.23
2018-10-17T16:28:06.604Z,8.93
2018-10-17T16:32:11.754Z,9.07
2018-10-17T16:36:15.924Z,8.60
2018-10-17T16:40:19.762Z,8.07
2018-10-17T16:44:23.445Z,7.90
2018-10-17T16:48:27.273Z,8.23
2018-10-17T16:52:31.014Z,7.80
2018-10-17T16:56:34.743Z,8.73
2018-10-17T17:00:38.483Z,8.40
2018-10-17T17:04:43.927Z,9.77
2018-10-17T17:08:47.693Z,8.80
2018-10-17T17:12:51.406Z,8.97
2018-10-17T17:16:55.177Z,9.50
2018-10-17T17:20:58.922Z,8.50
2018-10-17T17:25:02.725Z,8.73
2018-10-17T17:29:06.577Z,9.40
2018-10-17T17:33:10.378Z,8.80
2018-10-17T17:37:14.141Z,8.70
2018-10-17T17:41:17.880Z,10.30
2018-10-17T17:45:21.647Z,10.57
2018-10-17T17:49:25.500Z,11.10
2018-10-17T17:53:29.361Z,11.67
2018-10-17T17:57:33.073Z,14.47
2018-10-17T18:01:36.823Z,11.20
2018-10-17T18:05:40.535Z,10.83
2018-10-17T18:09:44.294Z,12.03
2018-10-17T18:13:48.177Z,10.60
2018-10-17T18:17:51.954Z,10.53
2018-10-17T18:21:55.779Z,9.97
2018-10-17T18:25:59.461Z,9.30
2018-10-17T18:30:03.314Z,9.63
2018-10-17T18:34:07.176Z,10.40
2018-10-17T18:38:10.987Z,10.07
2018-10-17T18:42:14.726Z,9.57
2018-10-17T18:46:18.426Z,10.73
2018-10-17T18:50:22.153Z,14.27
2018-10-17T18:54:29.569Z,16.70
2018-10-17T18:58:33.296Z,17.93
2018-10-17T19:02:37.276Z,21.33
2018-10-17T19:06:40.995Z,27.43
2018-10-17T19:10:44.742Z,27.30
2018-10-17T19:14:48.464Z,32.50
2018-10-17T19:18:52.173Z,35.00
2018-10-17T19:22:56.678Z,37.77
2018-10-17T19:27:00.847Z,39.00
2018-10-17T19:31:04.635Z,42.87
2018-10-17T19:35:08.429Z,43.37
2018-10-17T19:39:13.297Z,44.77
2018-10-17T19:43:17.033Z,41.27
2018-10-17T19:47:20.848Z,41.07
2018-10-17T19:51:24.730Z,38.57
2018-10-17T19:55:28.556Z,37.00
2018-10-17T19:59:32.281Z,33.93
2018-10-17T20:03:36.028Z,33.10
2018-10-17T20:07:40.352Z,32.40
2018-10-17T20:11:44.004Z,28.83
2018-10-17T20:15:47.753Z,31.07
2018-10-17T20:19:51.516Z,29.87
2018-10-17T20:23:55.281Z,28.33
2018-10-17T20:27:59.047Z,28.00
2018-10-17T20:32:02.765Z,28.40
2018-10-17T20:36:06.562Z,29.90
2018-10-17T20:40:10.389Z,28.73
2018-10-17T20:44:14.355Z,28.80
2018-10-17T20:48:18.079Z,28.40
2018-10-17T20:52:21.875Z,28.73
2018-10-17T20:56:25.689Z,28.87
2018-10-17T21:00:29.620Z,29.13
2018-10-17T21:04:33.388Z,27.93
2018-10-17T21:08:37.455Z,29.67
2018-10-17T21:12:41.219Z,29.67
2018-10-17T21:16:44.977Z,29.20
2018-10-17T21:20:48.713Z,32.43
2018-10-17T21:24:52.449Z,32.33
2018-10-17T21:28:56.304Z,34.23
2018-10-17T21:32:59.992Z,32.43
2018-10-17T21:37:03.748Z,34.23
2018-10-17T21:41:07.477Z,34.73
2018-10-17T21:45:11.231Z,35.33
2018-10-17T21:49:14.970Z,33.07
2018-10-17T21:53:18.668Z,36.97
2018-10-17T21:57:22.452Z,36.60
2018-10-17T22:01:26.176Z,35.67
2018-10-17T22:05:29.908Z,37.10
2018-10-17T22:09:33.631Z,39.40
2018-10-17T22:13:37.425Z,39.73
2018-10-17T22:17:41.183Z,37.17
2018-10-17T22:21:44.916Z,38.43
2018-10-17T22:25:48.683Z,38.37
2018-10-17T22:29:52.704Z,35.40
2018-10-17T22:33:56.413Z,38.47
2018-10-17T22:38:00.211Z,38.87
2018-10-17T22:42:03.963Z,41.70
2018-10-17T22:46:07.653Z,39.50
2018-10-17T22:50:11.803Z,41.53
2018-10-17T22:54:15.514Z,42.60
2018-10-17T22:58:19.257Z,39.77
2018-10-17T23:02:23.045Z,40.90
2018-10-17T23:06:26.761Z,42.07
2018-10-17T23:10:30.550Z,40.70
2018-10-17T23:14:34.366Z,39.67
2018-10-17T23:18:38.157Z,40.20
2018-10-17T23:22:42.632Z,43.20
2018-10-17T23:26:46.420Z,42.73
2018-10-17T23:30:50.177Z,42.80
2018-10-17T23:34:53.905Z,44.87
2018-10-17T23:38:57.661Z,45.63
2018-10-17T23:43:01.411Z,45.60
2018-10-17T23:47:05.193Z,45.20
2018-10-17T23:51:08.985Z,47.53
2018-10-17T23:55:12.749Z,48.67
2018-10-17T23:59:16.488Z,47.37
